createdAt,value
2023-01-12T00:00:44.602Z,28.07
2023-01-12T00:03:14.931Z,28.09
2023-01-12T00:06:12.082Z,28.10
2023-01-12T00:08:42.538Z,28.07
2023-01-12T00:11:12.707Z,28.11
2023-01-12T00:13:42.943Z,28.13
2023-01-12T00:16:43.308Z,28.09
2023-01-12T00:19:21.790Z,28.09
2023-01-12T00:21:59.673Z,28.09
2023-01-12T00:24:38.377Z,28.05
2023-01-12T00:27:10.913Z,28.08
2023-01-12T00:29:41.426Z,28.08
2023-01-12T00:32:18.940Z,28.06
2023-01-12T00:34:49.553Z,28.06
2023-01-12T00:37:21.592Z,28.07
2023-01-12T00:40:01.947Z,28.10
2023-01-12T00:42:51.284Z,28.10
2023-01-12T00:45:24.412Z,28.11
2023-01-12T00:47:55.901Z,28.11
2023-01-12T00:50:26.090Z,28.12
2023-01-12T00:52:56.151Z,28.15
2023-01-12T00:55:27.484Z,28.18
2023-01-12T00:57:57.181Z,28.19
2023-01-12T01:00:27.478Z,28.18
2023-01-12T01:02:57.680Z,28.19
2023-01-12T01:05:28.193Z,28.21
2023-01-12T01:07:58.324Z,28.22
2023-01-12T01:10:28.630Z,28.25
2023-01-12T01:12:59.670Z,28.22
2023-01-12T01:15:30.337Z,28.23
2023-01-12T01:18:00.587Z,28.24
2023-01-12T01:20:32.673Z,28.23
2023-01-12T01:23:03.241Z,28.24
2023-01-12T01:25:33.448Z,28.24
2023-01-12T01:28:03.483Z,28.24
2023-01-12T01:30:33.550Z,28.24
2023-01-12T01:33:03.469Z,28.23
2023-01-12T01:35:33.529Z,28.24
2023-01-12T01:38:03.553Z,28.24
2023-01-12T01:40:34.588Z,28.25
2023-01-12T01:43:05.137Z,28.24
2023-01-12T01:45:35.405Z,28.24
2023-01-12T01:48:05.995Z,28.27
2023-01-12T01:50:40.205Z,28.26
2023-01-12T01:53:18.653Z,28.26
2023-01-12T01:55:55.623Z,28.28
2023-01-12T01:58:34.652Z,28.30
2023-01-12T02:01:04.812Z,28.30
2023-01-12T02:03:36.854Z,28.30
2023-01-12T02:06:09.149Z,28.31
2023-01-12T02:08:58.795Z,28.33
2023-01-12T02:11:48.206Z,28.35
2023-01-12T02:14:36.823Z,28.38
2023-01-12T02:17:18.736Z,28.38
2023-01-12T02:20:19.618Z,28.42
2023-01-12T02:22:56.007Z,28.41
2023-01-12T02:25:56.854Z,28.41
2023-01-12T02:28:38.901Z,28.44
2023-01-12T02:31:29.666Z,28.44
2023-01-12T02:34:22.409Z,28.41
2023-01-12T02:37:15.781Z,28.42
2023-01-12T02:40:08.001Z,28.41
2023-01-12T02:42:45.189Z,28.43
2023-01-12T02:46:01.519Z,28.41
2023-01-12T02:48:38.917Z,28.41
2023-01-12T02:51:09.036Z,28.44
2023-01-12T02:54:08.151Z,28.46
2023-01-12T02:56:46.651Z,28.45
2023-01-12T02:59:22.971Z,28.45
2023-01-12T03:01:57.020Z,28.47
2023-01-12T03:04:30.804Z,28.49
2023-01-12T03:07:01.964Z,28.49
2023-01-12T03:10:02.769Z,28.48
2023-01-12T03:12:41.270Z,28.47
2023-01-12T03:15:17.355Z,28.50
2023-01-12T03:18:02.209Z,28.52
2023-01-12T03:20:43.934Z,28.51
2023-01-12T03:23:24.382Z,28.50
2023-01-12T03:25:57.022Z,28.52
2023-01-12T03:28:34.739Z,28.51
2023-01-12T03:31:17.539Z,28.52
2023-01-12T03:33:48.329Z,28.52
2023-01-12T03:36:34.985Z,28.52
2023-01-12T03:39:17.551Z,28.54
2023-01-12T03:41:53.554Z,28.54
2023-01-12T03:44:33.724Z,28.57
2023-01-12T03:47:14.364Z,28.56
2023-01-12T03:49:58.356Z,28.59
2023-01-12T03:52:30.981Z,28.56
2023-01-12T03:55:02.689Z,28.57
2023-01-12T03:57:33.954Z,28.60
2023-01-12T04:00:06.889Z,28.60
2023-01-12T04:02:45.560Z,28.61
2023-01-12T04:05:17.940Z,28.62
2023-01-12T04:07:48.113Z,28.61
2023-01-12T04:10:18.618Z,28.62
2023-01-12T04:12:48.715Z,28.61
2023-01-12T04:15:19.634Z,28.62
2023-01-12T04:17:51.943Z,28.64
2023-01-12T04:20:22.714Z,28.64
2023-01-12T04:22:53.158Z,28.65
2023-01-12T04:25:25.089Z,28.66
2023-01-12T04:27:58.775Z,28.67
2023-01-12T04:30:30.103Z,28.66
2023-01-12T04:33:01.300Z,28.67
2023-01-12T04:35:31.391Z,28.69
2023-01-12T04:38:03.291Z,28.68
2023-01-12T04:40:33.714Z,28.68
2023-01-12T04:43:06.996Z,28.68
2023-01-12T04:45:41.376Z,28.66
2023-01-12T04:48:14.891Z,28.70
2023-01-12T04:50:46.759Z,28.68
2023-01-12T04:53:17.095Z,28.69
2023-01-12T04:55:47.580Z,28.69
2023-01-12T04:58:17.699Z,28.69
2023-01-12T05:00:47.659Z,28.70
2023-01-12T05:03:18.357Z,28.72
2023-01-12T05:05:48.789Z,28.73
2023-01-12T05:08:37.070Z,28.73
2023-01-12T05:11:07.501Z,28.75
2023-01-12T05:13:37.587Z,28.76
2023-01-12T05:16:18.213Z,28.75
2023-01-12T05:18:49.093Z,28.76
2023-01-12T05:21:24.716Z,28.77
2023-01-12T05:23:55.777Z,28.76
2023-01-12T05:26:25.986Z,28.76
2023-01-12T05:28:55.900Z,28.76
2023-01-12T05:31:26.061Z,28.76
2023-01-12T05:33:56.742Z,28.77
2023-01-12T05:36:26.903Z,28.77
2023-01-12T05:38:57.060Z,28.77
2023-01-12T05:41:27.630Z,28.76
2023-01-12T05:43:57.671Z,28.77
2023-01-12T05:46:33.506Z,28.77
2023-01-12T05:49:03.628Z,28.79
2023-01-12T05:51:34.872Z,28.79
2023-01-12T05:54:06.777Z,28.80
2023-01-12T05:56:38.793Z,28.79
2023-01-12T05:59:09.472Z,28.79
2023-01-12T06:01:40.858Z,28.83
2023-01-12T06:04:10.753Z,28.83
2023-01-12T06:06:41.097Z,28.85
2023-01-12T06:09:11.659Z,28.82
2023-01-12T06:12:00.165Z,28.82
2023-01-12T06:14:30.379Z,28.82
2023-01-12T06:17:00.558Z,28.84
2023-01-12T06:19:30.742Z,28.81
2023-01-12T06:22:03.975Z,28.81
2023-01-12T06:24:34.687Z,28.83
2023-01-12T06:27:04.930Z,28.84
2023-01-12T06:29:35.073Z,28.84
2023-01-12T06:32:05.105Z,28.85
2023-01-12T06:34:37.556Z,28.85
2023-01-12T06:37:09.467Z,28.84
2023-01-12T06:39:39.609Z,28.86
2023-01-12T06:42:28.762Z,28.88
2023-01-12T06:45:00.220Z,28.85
2023-01-12T06:47:31.112Z,28.88
2023-01-12T06:50:02.894Z,28.89
2023-01-12T06:52:33.805Z,28.88
2023-01-12T06:55:03.901Z,28.86
2023-01-12T06:57:33.900Z,28.85
2023-01-12T07:00:04.615Z,28.85
2023-01-12T07:02:34.883Z,28.86
2023-01-12T07:05:05.045Z,28.85
2023-01-12T07:07:35.313Z,28.86
2023-01-12T07:10:08.685Z,28.88
2023-01-12T07:12:38.979Z,28.89
2023-01-12T07:15:10.049Z,28.89
2023-01-12T07:17:40.657Z,28.91
2023-01-12T07:20:11.522Z,28.92
2023-01-12T07:22:41.733Z,28.92
2023-01-12T07:25:12.671Z,28.92
2023-01-12T07:27:54.492Z,28.94
2023-01-12T07:30:25.576Z,28.94
2023-01-12T07:32:56.327Z,28.94
2023-01-12T07:35:27.359Z,28.93
2023-01-12T07:37:57.634Z,28.94
2023-01-12T07:40:27.861Z,28.93
2023-01-12T07:43:25.542Z,28.93
2023-01-12T07:45:58.535Z,28.93
2023-01-12T07:48:31.683Z,28.92
2023-01-12T07:51:02.120Z,28.95
2023-01-12T07:53:32.248Z,28.96
2023-01-12T07:56:02.719Z,28.98
2023-01-12T07:58:33.535Z,28.98
2023-01-12T08:01:04.629Z,28.96
2023-01-12T08:03:34.822Z,28.96
2023-01-12T08:06:05.119Z,29.00
2023-01-12T08:08:35.546Z,28.98
2023-01-12T08:11:09.239Z,28.98
2023-01-12T08:13:40.889Z,28.98
2023-01-12T08:16:21.055Z,29.02
2023-01-12T08:18:55.974Z,28.98
2023-01-12T08:21:50.544Z,29.00
2023-01-12T08:24:25.250Z,28.99
2023-01-12T08:26:58.049Z,28.98
2023-01-12T08:29:35.102Z,28.97
2023-01-12T08:34:46.462Z,28.99
2023-01-12T08:37:20.383Z,29.00
2023-01-12T08:39:51.903Z,29.01
2023-01-12T08:42:26.251Z,29.01
2023-01-12T08:44:57.460Z,29.02
2023-01-12T08:47:30.403Z,29.00
2023-01-12T08:50:02.484Z,29.04
2023-01-12T08:52:34.694Z,29.05
2023-01-12T08:55:05.171Z,29.06
2023-01-12T08:57:36.052Z,29.05
2023-01-12T09:00:06.780Z,29.04
2023-01-12T09:02:37.166Z,29.04
2023-01-12T09:05:08.021Z,29.04
2023-01-12T09:07:38.602Z,29.04
2023-01-12T09:10:10.433Z,29.02
2023-01-12T09:12:40.632Z,29.06
2023-01-12T09:15:11.178Z,29.02
2023-01-12T09:17:41.787Z,29.01
2023-01-12T09:20:12.570Z,29.04
2023-01-12T09:22:42.896Z,29.04
2023-01-12T09:25:12.903Z,29.04
2023-01-12T09:27:42.879Z,29.07
2023-01-12T09:30:13.883Z,29.06
2023-01-12T09:32:44.293Z,29.08
2023-01-12T09:35:14.489Z,29.09
2023-01-12T09:37:47.130Z,29.05
2023-01-12T09:40:17.997Z,29.09
2023-01-12T13:24:18.427Z,28.66
2023-01-12T13:26:54.642Z,28.66
2023-01-12T13:29:31.484Z,28.70
2023-01-12T13:32:22.045Z,28.76
2023-01-12T13:34:56.071Z,28.79
2023-01-12T13:37:52.017Z,28.85
2023-01-12T13:40:28.938Z,28.89
2023-01-12T13:43:18.642Z,29.00
2023-01-12T13:45:59.890Z,29.05
2023-01-12T13:48:31.647Z,29.13
2023-01-12T13:51:15.333Z,29.15
2023-01-12T13:53:45.988Z,29.17
2023-01-12T13:56:26.614Z,29.23
2023-01-12T13:59:10.458Z,29.26
2023-01-12T14:01:42.902Z,29.29
2023-01-12T14:04:23.822Z,29.32
2023-01-12T14:07:18.243Z,29.36
2023-01-12T14:10:06.465Z,29.36
2023-01-12T14:13:04.186Z,29.36
2023-01-12T14:16:01.392Z,29.40
2023-01-12T14:18:44.629Z,29.44
2023-01-12T14:21:35.141Z,29.44
2023-01-12T14:24:21.042Z,29.46
2023-01-12T14:26:52.167Z,29.46
2023-01-12T14:29:22.676Z,29.50
2023-01-12T14:31:56.553Z,29.51
2023-01-12T14:34:39.329Z,29.52
2023-01-12T14:37:32.352Z,29.54
2023-01-12T14:40:03.116Z,29.54
2023-01-12T14:42:53.241Z,29.52
2023-01-12T14:45:45.938Z,29.56
2023-01-12T14:48:33.080Z,29.51
2023-01-12T14:51:39.266Z,29.46
2023-01-12T14:54:09.301Z,29.44
2023-01-12T14:56:50.539Z,29.43
2023-01-12T14:59:26.193Z,29.40
2023-01-12T15:02:10.601Z,29.41
2023-01-12T15:04:51.631Z,29.40
2023-01-12T15:07:24.173Z,29.39
2023-01-12T15:10:00.915Z,29.38
2023-01-12T15:12:34.168Z,29.34
2023-01-12T15:15:55.358Z,29.34
2023-01-12T15:18:54.928Z,29.35
2023-01-12T15:21:46.078Z,29.32
2023-01-12T15:24:42.963Z,29.30
2023-01-12T15:27:18.772Z,29.28
2023-01-12T15:29:49.430Z,29.31
2023-01-12T15:32:55.837Z,29.29
2023-01-12T15:35:29.368Z,29.32
2023-01-12T15:38:01.340Z,29.30
2023-01-12T15:40:32.659Z,29.29
2023-01-12T15:43:05.429Z,29.30
2023-01-12T15:45:42.666Z,29.25
2023-01-12T15:48:13.834Z,29.25
2023-01-12T15:50:48.906Z,29.23
2023-01-12T15:53:22.624Z,29.24
2023-01-12T15:55:55.718Z,29.25
2023-01-12T15:58:26.210Z,29.24
2023-01-12T16:00:56.653Z,29.23
2023-01-12T16:03:57.183Z,29.21
2023-01-12T16:06:24.040Z,29.23
2023-01-12T16:08:54.848Z,29.23
2023-01-12T16:11:26.821Z,29.22
2023-01-12T16:13:58.062Z,29.22
2023-01-12T16:16:28.904Z,29.18
2023-01-12T16:19:03.645Z,29.20
2023-01-12T16:21:34.745Z,29.17
2023-01-12T16:24:05.369Z,29.16
2023-01-12T16:26:35.842Z,29.17
2023-01-12T16:29:08.778Z,29.17
2023-01-12T16:31:39.625Z,29.14
2023-01-12T16:34:09.986Z,29.16
2023-01-12T16:36:41.910Z,29.15
2023-01-12T16:39:15.616Z,29.15
2023-01-12T16:41:45.904Z,29.16
2023-01-12T16:44:16.256Z,29.14
2023-01-12T16:46:46.566Z,29.14
2023-01-12T16:49:17.014Z,29.11
2023-01-12T16:51:48.649Z,29.12
2023-01-12T16:54:19.219Z,29.10
2023-01-12T16:56:49.948Z,29.11
2023-01-12T16:59:20.130Z,29.11
2023-01-12T17:01:50.685Z,29.08
2023-01-12T17:04:25.646Z,29.08
2023-01-12T17:06:56.262Z,29.07
2023-01-12T17:09:26.580Z,29.07
2023-01-12T17:11:57.454Z,29.04
2023-01-12T17:14:29.901Z,29.05
2023-01-12T17:17:04.671Z,29.02
2023-01-12T17:19:36.608Z,29.05
2023-01-12T17:22:10.044Z,29.05
2023-01-12T17:24:45.137Z,29.05
2023-01-12T17:27:16.272Z,29.07
2023-01-12T17:29:46.869Z,29.05
2023-01-12T17:32:17.857Z,29.06
2023-01-12T17:34:51.843Z,29.08
2023-01-12T17:37:22.177Z,29.05
2023-01-12T17:39:52.720Z,29.05
2023-01-12T17:42:41.689Z,29.02
2023-01-12T17:45:12.708Z,29.04
2023-01-12T17:47:42.987Z,29.02
2023-01-12T17:50:14.333Z,29.05
2023-01-12T17:52:44.597Z,29.05
2023-01-12T17:55:15.099Z,29.03
2023-01-12T17:57:46.125Z,29.00
2023-01-12T18:00:18.569Z,29.01
2023-01-12T18:02:49.016Z,29.03
2023-01-12T18:05:19.354Z,29.01
2023-01-12T18:07:49.500Z,29.01
2023-01-12T18:10:20.000Z,29.03
2023-01-12T18:12:50.305Z,29.03
2023-01-12T18:15:20.746Z,29.02
2023-01-12T18:17:51.159Z,29.02
2023-01-12T18:20:21.449Z,29.01
2023-01-12T18:22:52.273Z,29.00
2023-01-12T18:25:22.840Z,28.99
2023-01-12T18:27:53.204Z,29.00
2023-01-12T18:30:23.478Z,29.00
2023-01-12T18:32:53.698Z,28.98
2023-01-12T18:35:24.040Z,28.97
2023-01-12T18:37:54.351Z,28.98
2023-01-12T18:40:24.465Z,28.95
2023-01-12T18:42:56.710Z,28.96
2023-01-12T18:45:27.575Z,28.96
2023-01-12T18:48:16.281Z,28.96
2023-01-12T18:51:04.840Z,28.97
2023-01-12T18:53:36.234Z,28.97
2023-01-12T18:56:08.192Z,28.98
2023-01-12T18:58:39.457Z,28.97
2023-01-12T19:01:15.088Z,28.98
2023-01-12T19:03:45.719Z,28.97
2023-01-12T19:06:46.756Z,28.97
2023-01-12T19:09:46.269Z,28.96
2023-01-12T19:12:16.542Z,28.96
2023-01-12T19:15:07.207Z,28.95
2023-01-12T19:17:38.229Z,28.95
2023-01-12T19:20:11.867Z,28.95
2023-01-12T19:23:00.773Z,28.93
2023-01-12T19:25:49.675Z,28.93
2023-01-12T19:28:38.462Z,28.90
2023-01-12T19:31:13.277Z,28.91
2023-01-12T19:33:45.063Z,28.90
2023-01-12T19:36:18.173Z,28.93
2023-01-12T19:38:51.883Z,28.90
2023-01-12T19:41:40.490Z,28.92
2023-01-12T19:44:10.906Z,28.89
2023-01-12T19:46:43.999Z,28.91
2023-01-12T19:49:15.597Z,28.92
2023-01-12T19:51:48.276Z,28.90
2023-01-12T19:54:18.622Z,28.94
2023-01-12T19:56:49.740Z,28.95
2023-01-12T19:59:20.584Z,28.93
2023-01-12T20:01:52.917Z,28.94
2023-01-12T20:04:23.221Z,28.93
2023-01-12T20:06:55.414Z,28.93
2023-01-12T20:09:26.140Z,28.92
2023-01-12T20:11:57.457Z,28.96
2023-01-12T20:14:27.828Z,28.93
2023-01-12T20:16:58.463Z,28.93
2023-01-12T20:19:28.857Z,28.93
2023-01-12T20:21:59.255Z,28.89
2023-01-12T20:24:29.636Z,28.91
2023-01-12T20:27:00.045Z,28.88
2023-01-12T20:29:30.364Z,28.87
2023-01-12T20:32:00.709Z,28.88
2023-01-12T20:34:31.277Z,28.89
2023-01-12T20:37:01.629Z,28.88
2023-01-12T20:39:33.006Z,28.85
2023-01-12T20:42:03.886Z,28.86
2023-01-12T20:44:34.096Z,28.92
2023-01-12T20:47:04.285Z,28.87
2023-01-12T20:49:34.830Z,28.85
2023-01-12T20:52:05.130Z,28.87
2023-01-12T20:54:35.324Z,28.88
2023-01-12T20:57:05.491Z,28.89
2023-01-12T20:59:35.562Z,28.86
2023-01-12T21:02:06.208Z,28.86
2023-01-12T21:04:36.848Z,28.85
2023-01-12T21:07:07.001Z,28.82
2023-01-12T21:09:37.208Z,28.83
2023-01-12T21:12:07.746Z,28.81
2023-01-12T21:14:40.506Z,28.83
2023-01-12T21:17:10.604Z,28.80
2023-01-12T21:19:41.008Z,28.81
2023-01-12T21:22:11.192Z,28.81
2023-01-12T21:24:41.120Z,28.82
2023-01-12T21:27:11.203Z,28.84
2023-01-12T21:29:41.218Z,28.81
2023-01-12T21:32:11.175Z,28.81
2023-01-12T21:34:41.221Z,28.81
2023-01-12T21:37:11.216Z,28.78
2023-01-12T21:39:41.245Z,28.79
2023-01-12T21:42:30.490Z,28.79
2023-01-12T21:45:00.628Z,28.79
2023-01-12T21:47:30.645Z,28.80
2023-01-12T21:50:00.797Z,28.80
2023-01-12T21:52:35.135Z,28.78
2023-01-12T21:55:05.320Z,28.81
2023-01-12T21:57:35.452Z,28.77
2023-01-12T22:00:07.950Z,28.79
2023-01-12T22:02:41.866Z,28.80
2023-01-12T22:05:13.310Z,28.79
2023-01-12T22:07:43.412Z,28.79
2023-01-12T22:10:23.196Z,28.78
2023-01-12T22:12:59.107Z,28.80
2023-01-12T22:15:31.539Z,28.80
2023-01-12T22:18:02.904Z,28.79
2023-01-12T22:20:34.012Z,28.78
2023-01-12T22:23:04.212Z,28.77
2023-01-12T22:25:36.338Z,28.83
2023-01-12T22:28:07.433Z,28.89
2023-01-12T22:30:37.374Z,28.87
2023-01-12T22:33:07.746Z,28.86
2023-01-12T22:35:38.010Z,28.82
2023-01-12T22:38:08.265Z,28.83
2023-01-12T22:40:38.415Z,28.79
2023-01-12T22:43:26.829Z,28.82
2023-01-12T22:46:00.101Z,28.82
2023-01-12T22:48:30.982Z,28.80
2023-01-12T22:51:03.050Z,28.78
2023-01-12T22:53:33.367Z,28.83
2023-01-12T22:56:06.104Z,28.81
2023-01-12T22:58:36.323Z,28.81
2023-01-12T23:03:26.284Z,28.85
2023-01-12T23:05:58.589Z,28.79
2023-01-12T23:08:28.854Z,28.80
2023-01-12T23:11:11.242Z,28.75
2023-01-12T23:13:43.063Z,28.69
2023-01-12T23:16:15.690Z,28.74
2023-01-12T23:18:47.595Z,28.70
2023-01-12T23:21:24.165Z,28.65
2023-01-12T23:24:01.396Z,28.66
2023-01-12T23:26:35.768Z,28.67
2023-01-12T23:29:06.099Z,28.69
2023-01-12T23:31:36.824Z,28.68
2023-01-12T23:34:07.080Z,28.66
2023-01-12T23:36:38.173Z,28.66
2023-01-12T23:39:10.300Z,28.68
2023-01-12T23:41:41.768Z,28.68
2023-01-12T23:44:12.226Z,28.66
2023-01-12T23:46:45.235Z,28.70
2023-01-12T23:49:15.417Z,28.67
2023-01-12T23:51:45.484Z,28.65
2023-01-12T23:54:20.367Z,28.69
2023-01-12T23:56:55.447Z,28.68
2023-01-12T23:59:25.689Z,28.72
